This is the latest recevied weather packets stored in our database for station/object SQ9MHX-13. If no packets are shown the sender has not sent any weather packets the latest 10 day(s).
| Time | Temp. | Humidity | Pressure | Rain* | Wind** | Luminosity | Snow |
|---|---|---|---|---|---|---|---|
| 1777557491 | 13.89° C | 26% | 976.7 hPa | - | 0 m/s | - | - |
| 1777557191 | 13.89° C | 26% | 977.2 hPa | - | 0 m/s | - | - |
| 1777556893 | 15° C | 25% | 976.1 hPa | - | 0 m/s | - | - |
| 1777556594 | 13.89° C | 24% | 976.8 hPa | - | 0 m/s | - | - |
| 1777556295 | 15° C | 25% | 976 hPa | - | 0 m/s | - | - |
| 1777555997 | 13.89° C | 25% | 976.5 hPa | - | 0 m/s | - | - |
| 1777555698 | 13.89° C | 24% | 976.3 hPa | - | 0 m/s | - | - |
| 1777555101 | 15° C | 25% | 976.2 hPa | - | 0 m/s | - | - |
| 1777554802 | 13.89° C | 26% | 975.9 hPa | - | 0 m/s | - | - |
| 1777554205 | 13.89° C | 25% | 976.9 hPa | - | 0 m/s | - | - |
| 1777553906 | 13.89° C | 26% | 976.5 hPa | - | 0 m/s | - | - |
| 1777553607 | 15° C | 26% | 976.3 hPa | - | 0 m/s | - | - |
| 1777553309 | 13.89° C | 25% | 976.4 hPa | - | 0 m/s | - | - |
| 1777553010 | 15° C | 26% | 976.9 hPa | - | 0 m/s | - | - |
| 1777552711 | 13.89° C | 26% | 976.4 hPa | - | 0 m/s | - | - |
| 1777552412 | 13.89° C | 25% | 976.8 hPa | - | 0 m/s | - | - |
| 1777552114 | 15° C | 26% | 976.6 hPa | - | 0 m/s | - | - |
| 1777551815 | 13.89° C | 26% | 977.3 hPa | - | 0 m/s | - | - |
| 1777550620 | 12.78° C | 28% | 979.1 hPa | - | 0 m/s | - | - |
| 1777550322 | 12.22° C | 29% | 980.2 hPa | - | 0 m/s | - | - |
| 1777549724 | 13.89° C | 27% | 977.9 hPa | - | 0 m/s | - | - |
| 1777549127 | 12.78° C | 29% | 978.2 hPa | - | 0 m/s | - | - |
| 1777548828 | 13.89° C | 28% | 978.4 hPa | - | 0 m/s | - | - |
| 1777548529 | 13.89° C | 29% | 978.5 hPa | - | 0 m/s | - | - |
| 1777548231 | 13.89° C | 31% | 977.9 hPa | - | 0 m/s | - | - |
* Rain since midnight (hover to see other rain measurements)
** Current wind speed in m/s (hover to see current wind gust speed)